sensor_id;sensor_type;location;lat;lon;timestamp;temperature;humidity
41310;DHT22;27057;51.438;-0.010;2023-03-01T00:01:40;7.30;99.90
41310;DHT22;27057;51.438;-0.010;2023-03-01T00:04:07;5.90;99.90
41310;DHT22;27057;51.438;-0.010;2023-03-01T00:06:35;6.10;99.90
41310;DHT22;27057;51.438;-0.010;2023-03-01T00:09:03;6.10;99.90
41310;DHT22;27057;51.438;-0.010;2023-03-01T00:11:32;6.10;99.90
41310;DHT22;27057;51.438;-0.010;2023-03-01T00:14:01;6.00;99.90
41310;DHT22;27057;51.438;-0.010;2023-03-01T00:16:32;6.40;99.90
41310;DHT22;27057;51.438;-0.010;2023-03-01T00:19:00;6.30;99.90
41310;DHT22;27057;51.438;-0.010;2023-03-01T00:23:56;5.90;99.90
41310;DHT22;27057;51.438;-0.010;2023-03-01T00:26:25;6.50;99.90
41310;DHT22;27057;51.438;-0.010;2023-03-01T00:28:54;5.90;99.90
41310;DHT22;27057;51.438;-0.010;2023-03-01T00:31:26;6.10;99.90
41310;DHT22;27057;51.438;-0.010;2023-03-01T00:34:00;5.90;99.90
41310;DHT22;27057;51.438;-0.010;2023-03-01T00:36:33;6.00;99.90
41310;DHT22;27057;51.438;-0.010;2023-03-01T00:39:01;5.80;99.90
41310;DHT22;27057;51.438;-0.010;2023-03-01T00:46:26;5.70;99.90
41310;DHT22;27057;51.438;-0.010;2023-03-01T00:48:56;5.70;99.90
41310;DHT22;27057;51.438;-0.010;2023-03-01T00:51:26;5.60;99.90
41310;DHT22;27057;51.438;-0.010;2023-03-01T00:53:59;5.50;99.90
41310;DHT22;27057;51.438;-0.010;2023-03-01T00:56:28;5.50;99.90
41310;DHT22;27057;51.438;-0.010;2023-03-01T01:01:27;5.60;99.90
41310;DHT22;27057;51.438;-0.010;2023-03-01T01:04:01;6.20;99.90
41310;DHT22;27057;51.438;-0.010;2023-03-01T01:06:34;5.70;99.90
41310;DHT22;27057;51.438;-0.010;2023-03-01T01:09:04;5.70;99.90
41310;DHT22;27057;51.438;-0.010;2023-03-01T01:11:32;5.60;99.90
41310;DHT22;27057;51.438;-0.010;2023-03-01T01:14:02;6.30;99.90
41310;DHT22;27057;51.438;-0.010;2023-03-01T01:16:30;5.70;99.90
41310;DHT22;27057;51.438;-0.010;2023-03-01T01:18:58;5.50;99.90
41310;DHT22;27057;51.438;-0.010;2023-03-01T01:21:27;6.20;99.90
41310;DHT22;27057;51.438;-0.010;2023-03-01T01:23:55;5.60;99.90
41310;DHT22;27057;51.438;-0.010;2023-03-01T01:26:25;5.40;99.90
41310;DHT22;27057;51.438;-0.010;2023-03-01T01:28:53;5.70;99.90
41310;DHT22;27057;51.438;-0.010;2023-03-01T01:31:22;5.70;99.90
41310;DHT22;27057;51.438;-0.010;2023-03-01T01:33:52;5.70;99.90
41310;DHT22;27057;51.438;-0.010;2023-03-01T01:36:20;6.80;99.90
41310;DHT22;27057;51.438;-0.010;2023-03-01T01:38:47;5.80;99.90
41310;DHT22;27057;51.438;-0.010;2023-03-01T01:41:16;5.70;99.90
41310;DHT22;27057;51.438;-0.010;2023-03-01T01:46:36;5.70;99.90
41310;DHT22;27057;51.438;-0.010;2023-03-01T01:49:23;5.80;99.90
41310;DHT22;27057;51.438;-0.010;2023-03-01T01:52:00;5.60;99.90
41310;DHT22;27057;51.438;-0.010;2023-03-01T01:54:38;5.70;99.90
41310;DHT22;27057;51.438;-0.010;2023-03-01T01:57:11;5.60;99.90
41310;DHT22;27057;51.438;-0.010;2023-03-01T01:59:42;5.70;99.90
41310;DHT22;27057;51.438;-0.010;2023-03-01T02:02:11;5.70;99.90
41310;DHT22;27057;51.438;-0.010;2023-03-01T02:09:43;5.70;99.90
41310;DHT22;27057;51.438;-0.010;2023-03-01T02:12:16;7.40;99.90
41310;DHT22;27057;51.438;-0.010;2023-03-01T02:14:44;5.80;99.90
41310;DHT22;27057;51.438;-0.010;2023-03-01T02:17:14;6.00;99.90
41310;DHT22;27057;51.438;-0.010;2023-03-01T02:21:01;6.10;99.90
41310;DHT22;27057;51.438;-0.010;2023-03-01T02:22:55;5.80;99.90
41310;DHT22;27057;51.438;-0.010;2023-03-01T02:28:35;5.80;99.90
41310;DHT22;27057;51.438;-0.010;2023-03-01T02:31:05;5.70;99.90
41310;DHT22;27057;51.438;-0.010;2023-03-01T02:33:52;5.90;99.90
41310;DHT22;27057;51.438;-0.010;2023-03-01T02:36:32;5.70;99.90
41310;DHT22;27057;51.438;-0.010;2023-03-01T02:39:04;6.00;99.90
41310;DHT22;27057;51.438;-0.010;2023-03-01T02:41:37;5.70;99.90
41310;DHT22;27057;51.438;-0.010;2023-03-01T02:44:05;5.90;99.90
41310;DHT22;27057;51.438;-0.010;2023-03-01T02:46:32;5.60;99.90
41310;DHT22;27057;51.438;-0.010;2023-03-01T02:49:00;7.10;99.90
41310;DHT22;27057;51.438;-0.010;2023-03-01T02:54:16;5.80;99.90
41310;DHT22;27057;51.438;-0.010;2023-03-01T02:56:45;5.70;99.90
41310;DHT22;27057;51.438;-0.010;2023-03-01T02:59:20;6.20;99.90
41310;DHT22;27057;51.438;-0.010;2023-03-01T03:01:48;5.70;99.90
41310;DHT22;27057;51.438;-0.010;2023-03-01T03:04:18;6.00;99.90
41310;DHT22;27057;51.438;-0.010;2023-03-01T03:06:50;7.30;99.90
41310;DHT22;27057;51.438;-0.010;2023-03-01T03:09:18;6.30;99.90
41310;DHT22;27057;51.438;-0.010;2023-03-01T03:11:46;5.90;99.90
41310;DHT22;27057;51.438;-0.010;2023-03-01T03:14:15;5.70;99.90
41310;DHT22;27057;51.438;-0.010;2023-03-01T03:16:48;5.60;99.90
41310;DHT22;27057;51.438;-0.010;2023-03-01T03:19:17;5.90;99.90
41310;DHT22;27057;51.438;-0.010;2023-03-01T03:21:45;6.00;99.90
41310;DHT22;27057;51.438;-0.010;2023-03-01T03:24:13;5.90;99.90
41310;DHT22;27057;51.438;-0.010;2023-03-01T03:26:40;5.60;99.90
41310;DHT22;27057;51.438;-0.010;2023-03-01T03:29:07;5.80;99.90
41310;DHT22;27057;51.438;-0.010;2023-03-01T03:31:34;5.60;99.90
41310;DHT22;27057;51.438;-0.010;2023-03-01T03:36:29;5.70;99.90
41310;DHT22;27057;51.438;-0.010;2023-03-01T03:38:57;5.70;99.90
41310;DHT22;27057;51.438;-0.010;2023-03-01T03:41:24;6.00;99.90
41310;DHT22;27057;51.438;-0.010;2023-03-01T03:46:19;5.80;99.90
41310;DHT22;27057;51.438;-0.010;2023-03-01T03:48:47;5.40;99.90
41310;DHT22;27057;51.438;-0.010;2023-03-01T03:51:16;5.80;99.90
41310;DHT22;27057;51.438;-0.010;2023-03-01T03:53:45;5.80;99.90
41310;DHT22;27057;51.438;-0.010;2023-03-01T03:56:12;5.90;99.90
41310;DHT22;27057;51.438;-0.010;2023-03-01T03:58:40;5.70;99.90
41310;DHT22;27057;51.438;-0.010;2023-03-01T04:03:35;5.80;99.90
41310;DHT22;27057;51.438;-0.010;2023-03-01T04:06:03;5.80;99.90
41310;DHT22;27057;51.438;-0.010;2023-03-01T04:08:31;5.80;99.90
41310;DHT22;27057;51.438;-0.010;2023-03-01T04:11:03;6.10;99.90
41310;DHT22;27057;51.438;-0.010;2023-03-01T04:13:52;5.60;99.90
41310;DHT22;27057;51.438;-0.010;2023-03-01T04:16:20;6.80;99.90
41310;DHT22;27057;51.438;-0.010;2023-03-01T04:21:15;5.70;99.90
41310;DHT22;27057;51.438;-0.010;2023-03-01T04:23:44;5.70;99.90
41310;DHT22;27057;51.438;-0.010;2023-03-01T04:26:11;5.70;99.90
41310;DHT22;27057;51.438;-0.010;2023-03-01T04:28:40;5.80;99.90
41310;DHT22;27057;51.438;-0.010;2023-03-01T04:31:12;5.70;99.90
41310;DHT22;27057;51.438;-0.010;2023-03-01T04:33:52;5.90;99.90
41310;DHT22;27057;51.438;-0.010;2023-03-01T04:36:25;5.70;99.90
41310;DHT22;27057;51.438;-0.010;2023-03-01T04:38:53;5.80;99.90
41310;DHT22;27057;51.438;-0.010;2023-03-01T04:41:22;5.80;99.90
41310;DHT22;27057;51.438;-0.010;2023-03-01T04:43:50;6.00;99.90
41310;DHT22;27057;51.438;-0.010;2023-03-01T04:46:19;5.80;99.90
41310;DHT22;27057;51.438;-0.010;2023-03-01T04:48:47;5.60;99.90
41310;DHT22;27057;51.438;-0.010;2023-03-01T04:51:16;7.30;99.90
41310;DHT22;27057;51.438;-0.010;2023-03-01T04:53:45;6.50;99.90
41310;DHT22;27057;51.438;-0.010;2023-03-01T04:56:13;5.90;99.90
41310;DHT22;27057;51.438;-0.010;2023-03-01T04:58:41;5.10;99.90
41310;DHT22;27057;51.438;-0.010;2023-03-01T05:01:13;5.80;99.90
41310;DHT22;27057;51.438;-0.010;2023-03-01T05:03:44;5.60;99.90
41310;DHT22;27057;51.438;-0.010;2023-03-01T05:06:12;5.70;99.90
41310;DHT22;27057;51.438;-0.010;2023-03-01T05:08:41;5.70;99.90
41310;DHT22;27057;51.438;-0.010;2023-03-01T05:13:38;5.50;99.90
41310;DHT22;27057;51.438;-0.010;2023-03-01T05:16:06;6.00;99.90
41310;DHT22;27057;51.438;-0.010;2023-03-01T05:18:34;5.60;99.90
41310;DHT22;27057;51.438;-0.010;2023-03-01T05:21:07;5.90;99.90
41310;DHT22;27057;51.438;-0.010;2023-03-01T05:26:04;5.60;99.90
41310;DHT22;27057;51.438;-0.010;2023-03-01T05:28:34;5.60;99.90
41310;DHT22;27057;51.438;-0.010;2023-03-01T05:33:29;5.50;99.90
41310;DHT22;27057;51.438;-0.010;2023-03-01T05:35:59;5.50;99.90
41310;DHT22;27057;51.438;-0.010;2023-03-01T05:38:27;5.40;99.90
41310;DHT22;27057;51.438;-0.010;2023-03-01T05:40:54;5.40;99.90
41310;DHT22;27057;51.438;-0.010;2023-03-01T05:43:22;5.40;99.90
41310;DHT22;27057;51.438;-0.010;2023-03-01T05:45:49;5.40;99.90
41310;DHT22;27057;51.438;-0.010;2023-03-01T05:48:16;5.40;99.90
41310;DHT22;27057;51.438;-0.010;2023-03-01T05:50:46;5.80;99.90
41310;DHT22;27057;51.438;-0.010;2023-03-01T05:53:19;5.80;99.90
41310;DHT22;27057;51.438;-0.010;2023-03-01T05:55:48;5.50;99.90
41310;DHT22;27057;51.438;-0.010;2023-03-01T05:58:19;5.70;99.90
41310;DHT22;27057;51.438;-0.010;2023-03-01T06:00:48;5.50;99.90
41310;DHT22;27057;51.438;-0.010;2023-03-01T06:03:17;5.30;99.90
41310;DHT22;27057;51.438;-0.010;2023-03-01T06:05:44;5.40;99.90
41310;DHT22;27057;51.438;-0.010;2023-03-01T06:08:12;5.50;99.90
41310;DHT22;27057;51.438;-0.010;2023-03-01T06:10:40;5.60;99.90
41310;DHT22;27057;51.438;-0.010;2023-03-01T06:13:07;6.10;99.90
41310;DHT22;27057;51.438;-0.010;2023-03-01T06:15:35;5.10;99.90
41310;DHT22;27057;51.438;-0.010;2023-03-01T06:18:02;5.60;99.90
41310;DHT22;27057;51.438;-0.010;2023-03-01T06:20:30;5.30;99.90
41310;DHT22;27057;51.438;-0.010;2023-03-01T06:22:57;3.40;99.90
41310;DHT22;27057;51.438;-0.010;2023-03-01T06:25:28;5.30;99.90
41310;DHT22;27057;51.438;-0.010;2023-03-01T06:27:55;5.30;99.90
41310;DHT22;27057;51.438;-0.010;2023-03-01T06:30:25;7.30;99.90
41310;DHT22;27057;51.438;-0.010;2023-03-01T06:32:53;5.40;99.90
41310;DHT22;27057;51.438;-0.010;2023-03-01T06:35:29;5.00;99.90
41310;DHT22;27057;51.438;-0.010;2023-03-01T06:37:58;5.30;99.90
41310;DHT22;27057;51.438;-0.010;2023-03-01T06:40:26;5.30;99.90
41310;DHT22;27057;51.438;-0.010;2023-03-01T06:42:55;5.40;99.90
41310;DHT22;27057;51.438;-0.010;2023-03-01T06:47:50;5.40;99.90
41310;DHT22;27057;51.438;-0.010;2023-03-01T06:50:18;5.30;99.90
41310;DHT22;27057;51.438;-0.010;2023-03-01T06:55:12;5.40;99.90
41310;DHT22;27057;51.438;-0.010;2023-03-01T06:57:40;5.10;99.90
41310;DHT22;27057;51.438;-0.010;2023-03-01T07:00:08;5.40;99.90
41310;DHT22;27057;51.438;-0.010;2023-03-01T07:02:35;5.20;99.90
41310;DHT22;27057;51.438;-0.010;2023-03-01T07:05:03;5.30;99.90
41310;DHT22;27057;51.438;-0.010;2023-03-01T07:07:30;6.70;99.90
41310;DHT22;27057;51.438;-0.010;2023-03-01T07:09:58;5.60;99.90
41310;DHT22;27057;51.438;-0.010;2023-03-01T07:12:25;6.40;99.90
41310;DHT22;27057;51.438;-0.010;2023-03-01T07:14:53;5.50;99.90
41310;DHT22;27057;51.438;-0.010;2023-03-01T07:17:20;5.60;99.90
41310;DHT22;27057;51.438;-0.010;2023-03-01T07:19:47;5.50;99.90
41310;DHT22;27057;51.438;-0.010;2023-03-01T07:22:15;5.80;99.90
41310;DHT22;27057;51.438;-0.010;2023-03-01T07:24:43;5.50;99.90
41310;DHT22;27057;51.438;-0.010;2023-03-01T07:27:11;5.90;99.90
41310;DHT22;27057;51.438;-0.010;2023-03-01T07:29:39;5.60;99.90
41310;DHT22;27057;51.438;-0.010;2023-03-01T07:37:02;5.60;99.90
41310;DHT22;27057;51.438;-0.010;2023-03-01T07:39:29;5.80;99.90
41310;DHT22;27057;51.438;-0.010;2023-03-01T07:41:57;5.70;99.90
41310;DHT22;27057;51.438;-0.010;2023-03-01T07:46:53;5.70;99.90
41310;DHT22;27057;51.438;-0.010;2023-03-01T07:49:23;5.70;99.90
41310;DHT22;27057;51.438;-0.010;2023-03-01T07:51:51;5.70;99.90
41310;DHT22;27057;51.438;-0.010;2023-03-01T07:54:19;7.40;99.90
41310;DHT22;27057;51.438;-0.010;2023-03-01T07:56:46;5.80;99.90
41310;DHT22;27057;51.438;-0.010;2023-03-01T07:59:14;5.90;99.90
41310;DHT22;27057;51.438;-0.010;2023-03-01T08:01:41;5.90;99.90
41310;DHT22;27057;51.438;-0.010;2023-03-01T08:04:09;6.00;99.90
41310;DHT22;27057;51.438;-0.010;2023-03-01T08:06:36;6.00;99.90
41310;DHT22;27057;51.438;-0.010;2023-03-01T08:09:04;6.00;99.90
41310;DHT22;27057;51.438;-0.010;2023-03-01T08:11:32;6.00;99.90
41310;DHT22;27057;51.438;-0.010;2023-03-01T08:13:59;6.10;99.90
41310;DHT22;27057;51.438;-0.010;2023-03-01T08:16:27;6.10;99.90
41310;DHT22;27057;51.438;-0.010;2023-03-01T08:18:55;6.10;99.90
41310;DHT22;27057;51.438;-0.010;2023-03-01T08:21:23;6.20;99.90
41310;DHT22;27057;51.438;-0.010;2023-03-01T08:23:51;6.10;99.90
41310;DHT22;27057;51.438;-0.010;2023-03-01T08:26:20;6.20;99.90
41310;DHT22;27057;51.438;-0.010;2023-03-01T08:28:49;6.20;99.90
41310;DHT22;27057;51.438;-0.010;2023-03-01T08:31:30;6.20;99.90
41310;DHT22;27057;51.438;-0.010;2023-03-01T08:34:00;6.20;99.90
41310;DHT22;27057;51.438;-0.010;2023-03-01T08:36:30;6.20;99.90
41310;DHT22;27057;51.438;-0.010;2023-03-01T08:38:59;6.20;99.90
41310;DHT22;27057;51.438;-0.010;2023-03-01T08:41:27;6.20;99.90
41310;DHT22;27057;51.438;-0.010;2023-03-01T08:43:55;6.20;99.90
41310;DHT22;27057;51.438;-0.010;2023-03-01T08:46:27;6.20;99.90
41310;DHT22;27057;51.438;-0.010;2023-03-01T08:48:56;6.30;99.90
41310;DHT22;27057;51.438;-0.010;2023-03-01T08:51:24;6.40;99.90
41310;DHT22;27057;51.438;-0.010;2023-03-01T08:53:52;6.40;99.90
41310;DHT22;27057;51.438;-0.010;2023-03-01T08:56:19;6.50;99.90
41310;DHT22;27057;51.438;-0.010;2023-03-01T08:58:48;6.60;99.90
41310;DHT22;27057;51.438;-0.010;2023-03-01T09:01:18;6.60;99.90
41310;DHT22;27057;51.438;-0.010;2023-03-01T09:03:46;6.60;99.90
41310;DHT22;27057;51.438;-0.010;2023-03-01T09:06:14;6.70;99.90
41310;DHT22;27057;51.438;-0.010;2023-03-01T09:08:45;6.70;99.90
41310;DHT22;27057;51.438;-0.010;2023-03-01T09:11:18;6.80;99.90
41310;DHT22;27057;51.438;-0.010;2023-03-01T09:13:48;6.80;99.90
41310;DHT22;27057;51.438;-0.010;2023-03-01T09:16:17;6.90;99.90
41310;DHT22;27057;51.438;-0.010;2023-03-01T09:18:50;6.90;99.90
41310;DHT22;27057;51.438;-0.010;2023-03-01T09:21:19;7.00;99.90
41310;DHT22;27057;51.438;-0.010;2023-03-01T09:24:06;7.00;99.90
41310;DHT22;27057;51.438;-0.010;2023-03-01T09:26:34;7.10;99.90
41310;DHT22;27057;51.438;-0.010;2023-03-01T09:29:01;7.20;99.90
41310;DHT22;27057;51.438;-0.010;2023-03-01T09:31:28;7.30;99.90
41310;DHT22;27057;51.438;-0.010;2023-03-01T09:33:56;7.30;99.90
41310;DHT22;27057;51.438;-0.010;2023-03-01T09:36:24;7.40;99.90
41310;DHT22;27057;51.438;-0.010;2023-03-01T09:38:54;7.50;99.90
41310;DHT22;27057;51.438;-0.010;2023-03-01T09:41:38;7.60;99.90
41310;DHT22;27057;51.438;-0.010;2023-03-01T09:47:08;7.80;99.90
41310;DHT22;27057;51.438;-0.010;2023-03-01T09:49:41;7.80;99.90
41310;DHT22;27057;51.438;-0.010;2023-03-01T09:52:40;7.90;99.90
41310;DHT22;27057;51.438;-0.010;2023-03-01T09:55:17;8.00;99.90
41310;DHT22;27057;51.438;-0.010;2023-03-01T09:58:00;8.10;99.90
41310;DHT22;27057;51.438;-0.010;2023-03-01T10:00:42;8.20;99.90
41310;DHT22;27057;51.438;-0.010;2023-03-01T10:03:16;8.10;99.90
41310;DHT22;27057;51.438;-0.010;2023-03-01T10:08:36;8.30;99.90
41310;DHT22;27057;51.438;-0.010;2023-03-01T10:11:54;8.30;99.90
41310;DHT22;27057;51.438;-0.010;2023-03-01T10:14:40;8.40;99.90
41310;DHT22;27057;51.438;-0.010;2023-03-01T10:22:44;8.70;99.90
41310;DHT22;27057;51.438;-0.010;2023-03-01T10:28:08;8.80;99.90
41310;DHT22;27057;51.438;-0.010;2023-03-01T10:30:39;8.80;99.90
41310;DHT22;27057;51.438;-0.010;2023-03-01T10:33:31;8.60;99.90
41310;DHT22;27057;51.438;-0.010;2023-03-01T10:35:59;8.40;99.90
41310;DHT22;27057;51.438;-0.010;2023-03-01T10:38:31;8.20;99.90
41310;DHT22;27057;51.438;-0.010;2023-03-01T10:41:06;8.20;99.90
41310;DHT22;27057;51.438;-0.010;2023-03-01T10:51:44;8.20;99.90
41310;DHT22;27057;51.438;-0.010;2023-03-01T10:54:26;8.20;99.90
41310;DHT22;27057;51.438;-0.010;2023-03-01T10:57:03;8.20;99.90
41310;DHT22;27057;51.438;-0.010;2023-03-01T11:02:27;8.20;99.90
41310;DHT22;27057;51.438;-0.010;2023-03-01T11:07:52;8.00;99.90
41310;DHT22;27057;51.438;-0.010;2023-03-01T11:10:23;7.90;99.90
41310;DHT22;27057;51.438;-0.010;2023-03-01T11:12:52;7.90;99.90
41310;DHT22;27057;51.438;-0.010;2023-03-01T11:15:29;8.00;99.90
41310;DHT22;27057;51.438;-0.010;2023-03-01T11:17:57;7.90;99.90
41310;DHT22;27057;51.438;-0.010;2023-03-01T11:20:39;8.00;99.90
41310;DHT22;27057;51.438;-0.010;2023-03-01T11:23:14;8.00;99.90
41310;DHT22;27057;51.438;-0.010;2023-03-01T11:25:49;8.10;99.90
41310;DHT22;27057;51.438;-0.010;2023-03-01T11:28:19;8.20;99.90
41310;DHT22;27057;51.438;-0.010;2023-03-01T11:30:56;8.20;99.90
41310;DHT22;27057;51.438;-0.010;2023-03-01T11:33:45;8.20;99.90
41310;DHT22;27057;51.438;-0.010;2023-03-01T11:36:35;8.20;99.90
41310;DHT22;27057;51.438;-0.010;2023-03-01T11:39:24;8.20;99.90
41310;DHT22;27057;51.438;-0.010;2023-03-01T11:44:48;8.10;99.90
41310;DHT22;27057;51.438;-0.010;2023-03-01T11:52:58;8.20;99.90
41310;DHT22;27057;51.438;-0.010;2023-03-01T12:01:26;8.20;99.90
41310;DHT22;27057;51.438;-0.010;2023-03-01T12:04:02;8.30;99.90
41310;DHT22;27057;51.438;-0.010;2023-03-01T12:06:55;8.50;99.90
41310;DHT22;27057;51.438;-0.010;2023-03-01T12:15:58;8.70;99.90
41310;DHT22;27057;51.438;-0.010;2023-03-01T12:27:07;8.40;99.90
41310;DHT22;27057;51.438;-0.010;2023-03-01T12:32:47;8.00;99.90
41310;DHT22;27057;51.438;-0.010;2023-03-01T12:41:05;8.40;99.90
41310;DHT22;27057;51.438;-0.010;2023-03-01T12:43:51;8.30;99.90
41310;DHT22;27057;51.438;-0.010;2023-03-01T12:49:42;8.20;99.90
41310;DHT22;27057;51.438;-0.010;2023-03-01T12:52:43;8.20;99.90
41310;DHT22;27057;51.438;-0.010;2023-03-01T12:55:34;8.10;99.90
41310;DHT22;27057;51.438;-0.010;2023-03-01T13:01:36;8.30;99.90
41310;DHT22;27057;51.438;-0.010;2023-03-01T13:04:21;8.40;99.90
41310;DHT22;27057;51.438;-0.010;2023-03-01T13:07:04;8.60;99.90
41310;DHT22;27057;51.438;-0.010;2023-03-01T13:15:28;8.80;99.90
41310;DHT22;27057;51.438;-0.010;2023-03-01T13:26:12;8.80;99.90
41310;DHT22;27057;51.438;-0.010;2023-03-01T13:28:48;8.60;99.90
41310;DHT22;27057;51.438;-0.010;2023-03-01T13:33:48;8.30;99.90
41310;DHT22;27057;51.438;-0.010;2023-03-01T13:36:46;8.30;99.90
41310;DHT22;27057;51.438;-0.010;2023-03-01T13:39:27;9.80;99.90
41310;DHT22;27057;51.438;-0.010;2023-03-01T13:41:55;8.30;99.90
41310;DHT22;27057;51.438;-0.010;2023-03-01T13:44:29;8.30;99.90
41310;DHT22;27057;51.438;-0.010;2023-03-01T13:49:31;8.50;99.90
41310;DHT22;27057;51.438;-0.010;2023-03-01T13:52:48;8.60;99.90
41310;DHT22;27057;51.438;-0.010;2023-03-01T13:58:00;8.80;99.90
41310;DHT22;27057;51.438;-0.010;2023-03-01T14:00:32;9.00;99.90
41310;DHT22;27057;51.438;-0.010;2023-03-01T14:05:35;8.80;99.90
41310;DHT22;27057;51.438;-0.010;2023-03-01T14:08:26;8.90;99.90
41310;DHT22;27057;51.438;-0.010;2023-03-01T14:11:25;8.60;99.90
41310;DHT22;27057;51.438;-0.010;2023-03-01T14:16:49;8.60;99.90
41310;DHT22;27057;51.438;-0.010;2023-03-01T14:19:28;8.50;99.90
41310;DHT22;27057;51.438;-0.010;2023-03-01T14:24:33;8.40;99.90
41310;DHT22;27057;51.438;-0.010;2023-03-01T14:27:04;8.40;99.90
41310;DHT22;27057;51.438;-0.010;2023-03-01T14:29:38;8.90;99.90
41310;DHT22;27057;51.438;-0.010;2023-03-01T14:34:47;8.20;99.90
41310;DHT22;27057;51.438;-0.010;2023-03-01T14:37:27;8.40;99.90
41310;DHT22;27057;51.438;-0.010;2023-03-01T14:39:56;8.30;99.90
41310;DHT22;27057;51.438;-0.010;2023-03-01T14:42:27;8.30;99.90
41310;DHT22;27057;51.438;-0.010;2023-03-01T14:44:57;8.70;99.90
41310;DHT22;27057;51.438;-0.010;2023-03-01T14:47:32;8.60;99.90
41310;DHT22;27057;51.438;-0.010;2023-03-01T14:50:30;8.70;99.90
41310;DHT22;27057;51.438;-0.010;2023-03-01T14:53:01;8.80;99.90
41310;DHT22;27057;51.438;-0.010;2023-03-01T14:55:33;8.70;99.90
41310;DHT22;27057;51.438;-0.010;2023-03-01T14:58:08;9.00;99.90
41310;DHT22;27057;51.438;-0.010;2023-03-01T15:00:37;9.10;99.90
41310;DHT22;27057;51.438;-0.010;2023-03-01T15:03:12;9.00;99.90
41310;DHT22;27057;51.438;-0.010;2023-03-01T15:05:42;9.10;99.90
41310;DHT22;27057;51.438;-0.010;2023-03-01T15:08:23;8.80;99.90
41310;DHT22;27057;51.438;-0.010;2023-03-01T15:11:01;8.80;99.90
41310;DHT22;27057;51.438;-0.010;2023-03-01T15:13:34;8.90;99.90
41310;DHT22;27057;51.438;-0.010;2023-03-01T15:16:08;8.90;99.90
41310;DHT22;27057;51.438;-0.010;2023-03-01T15:18:36;8.90;99.90
41310;DHT22;27057;51.438;-0.010;2023-03-01T15:21:15;8.60;99.90
41310;DHT22;27057;51.438;-0.010;2023-03-01T15:23:52;8.80;99.90
41310;DHT22;27057;51.438;-0.010;2023-03-01T15:26:25;8.80;99.90
41310;DHT22;27057;51.438;-0.010;2023-03-01T15:28:56;9.00;99.90
41310;DHT22;27057;51.438;-0.010;2023-03-01T15:31:30;8.90;99.90
41310;DHT22;27057;51.438;-0.010;2023-03-01T15:34:23;9.00;99.90
41310;DHT22;27057;51.438;-0.010;2023-03-01T15:36:52;9.10;99.90
41310;DHT22;27057;51.438;-0.010;2023-03-01T15:39:53;9.10;99.90
41310;DHT22;27057;51.438;-0.010;2023-03-01T15:47:52;9.20;99.90
41310;DHT22;27057;51.438;-0.010;2023-03-01T15:50:24;9.10;99.90
41310;DHT22;27057;51.438;-0.010;2023-03-01T15:52:54;8.80;99.90
41310;DHT22;27057;51.438;-0.010;2023-03-01T15:55:25;7.30;99.90
41310;DHT22;27057;51.438;-0.010;2023-03-01T15:58:12;9.40;99.90
41310;DHT22;27057;51.438;-0.010;2023-03-01T16:00:40;10.00;99.90
41310;DHT22;27057;51.438;-0.010;2023-03-01T16:03:25;10.20;99.90
41310;DHT22;27057;51.438;-0.010;2023-03-01T16:05:53;10.50;99.90
41310;DHT22;27057;51.438;-0.010;2023-03-01T16:08:21;10.30;99.90
41310;DHT22;27057;51.438;-0.010;2023-03-01T16:10:49;9.50;99.90
41310;DHT22;27057;51.438;-0.010;2023-03-01T16:13:18;9.90;99.90
41310;DHT22;27057;51.438;-0.010;2023-03-01T16:18:14;9.50;99.90
41310;DHT22;27057;51.438;-0.010;2023-03-01T16:20:41;9.30;99.90
41310;DHT22;27057;51.438;-0.010;2023-03-01T16:23:11;9.20;99.90
41310;DHT22;27057;51.438;-0.010;2023-03-01T16:25:38;8.80;99.90
41310;DHT22;27057;51.438;-0.010;2023-03-01T16:28:06;8.90;99.90
41310;DHT22;27057;51.438;-0.010;2023-03-01T16:30:38;9.10;99.90
41310;DHT22;27057;51.438;-0.010;2023-03-01T16:33:07;8.80;99.90
41310;DHT22;27057;51.438;-0.010;2023-03-01T16:35:55;8.80;99.90
41310;DHT22;27057;51.438;-0.010;2023-03-01T16:38:23;7.30;99.90
41310;DHT22;27057;51.438;-0.010;2023-03-01T16:40:52;10.20;99.90
41310;DHT22;27057;51.438;-0.010;2023-03-01T16:43:19;8.40;99.90
41310;DHT22;27057;51.438;-0.010;2023-03-01T16:45:47;8.40;99.90
41310;DHT22;27057;51.438;-0.010;2023-03-01T16:48:14;8.30;99.90
41310;DHT22;27057;51.438;-0.010;2023-03-01T16:50:42;8.40;99.90
41310;DHT22;27057;51.438;-0.010;2023-03-01T16:53:09;8.20;99.90
41310;DHT22;27057;51.438;-0.010;2023-03-01T16:55:37;8.50;99.90
41310;DHT22;27057;51.438;-0.010;2023-03-01T16:58:12;8.30;99.90
41310;DHT22;27057;51.438;-0.010;2023-03-01T17:00:42;8.50;99.90
41310;DHT22;27057;51.438;-0.010;2023-03-01T17:03:10;8.10;99.90
41310;DHT22;27057;51.438;-0.010;2023-03-01T17:05:40;8.10;99.90
41310;DHT22;27057;51.438;-0.010;2023-03-01T17:08:07;8.40;99.90
41310;DHT22;27057;51.438;-0.010;2023-03-01T17:10:35;8.30;99.90
41310;DHT22;27057;51.438;-0.010;2023-03-01T17:13:03;8.00;99.90
41310;DHT22;27057;51.438;-0.010;2023-03-01T17:15:31;8.30;99.90
41310;DHT22;27057;51.438;-0.010;2023-03-01T17:17:59;8.00;99.90
41310;DHT22;27057;51.438;-0.010;2023-03-01T17:20:26;7.60;99.90
41310;DHT22;27057;51.438;-0.010;2023-03-01T17:22:54;8.00;99.90
41310;DHT22;27057;51.438;-0.010;2023-03-01T17:25:22;7.90;99.90
41310;DHT22;27057;51.438;-0.010;2023-03-01T17:27:49;8.60;99.90
41310;DHT22;27057;51.438;-0.010;2023-03-01T17:30:17;7.90;99.90
41310;DHT22;27057;51.438;-0.010;2023-03-01T17:32:44;7.90;99.90
41310;DHT22;27057;51.438;-0.010;2023-03-01T17:35:12;7.70;99.90
41310;DHT22;27057;51.438;-0.010;2023-03-01T17:37:39;7.90;99.90
41310;DHT22;27057;51.438;-0.010;2023-03-01T17:40:12;7.80;99.90
41310;DHT22;27057;51.438;-0.010;2023-03-01T17:42:40;7.70;99.90
41310;DHT22;27057;51.438;-0.010;2023-03-01T17:45:08;7.70;99.90
41310;DHT22;27057;51.438;-0.010;2023-03-01T17:47:35;7.70;99.90
41310;DHT22;27057;51.438;-0.010;2023-03-01T17:50:03;8.00;99.90
41310;DHT22;27057;51.438;-0.010;2023-03-01T17:52:32;7.80;99.90
41310;DHT22;27057;51.438;-0.010;2023-03-01T17:54:59;7.70;99.90
41310;DHT22;27057;51.438;-0.010;2023-03-01T17:57:27;7.80;99.90
41310;DHT22;27057;51.438;-0.010;2023-03-01T17:59:56;9.00;99.90
41310;DHT22;27057;51.438;-0.010;2023-03-01T18:02:23;7.60;99.90
41310;DHT22;27057;51.438;-0.010;2023-03-01T18:04:56;7.70;99.90
41310;DHT22;27057;51.438;-0.010;2023-03-01T18:07:26;8.50;99.90
41310;DHT22;27057;51.438;-0.010;2023-03-01T18:09:54;7.80;99.90
41310;DHT22;27057;51.438;-0.010;2023-03-01T18:12:21;7.60;99.90
41310;DHT22;27057;51.438;-0.010;2023-03-01T18:14:49;7.90;99.90
41310;DHT22;27057;51.438;-0.010;2023-03-01T18:17:20;8.40;99.90
41310;DHT22;27057;51.438;-0.010;2023-03-01T18:19:50;7.60;99.90
41310;DHT22;27057;51.438;-0.010;2023-03-01T18:22:21;7.60;99.90
41310;DHT22;27057;51.438;-0.010;2023-03-01T18:24:49;7.50;99.90
41310;DHT22;27057;51.438;-0.010;2023-03-01T18:27:17;8.00;99.90
41310;DHT22;27057;51.438;-0.010;2023-03-01T18:29:44;7.50;99.90
41310;DHT22;27057;51.438;-0.010;2023-03-01T18:32:11;7.50;99.90
41310;DHT22;27057;51.438;-0.010;2023-03-01T18:34:39;6.00;99.90
41310;DHT22;27057;51.438;-0.010;2023-03-01T18:37:06;7.50;99.90
41310;DHT22;27057;51.438;-0.010;2023-03-01T18:42:04;7.60;99.90
41310;DHT22;27057;51.438;-0.010;2023-03-01T18:44:32;7.50;99.90
41310;DHT22;27057;51.438;-0.010;2023-03-01T18:46:59;7.50;99.90